sensor_id;sensor_type;location;lat;lon;timestamp;P1;durP1;ratioP1;P2;durP2;ratioP2
68870;SDS011;55906;52.278;6.808;2023-11-21T00:01:19;26.58;;;11.95;;
68870;SDS011;55906;52.278;6.808;2023-11-21T00:03:47;27.05;;;12.43;;
68870;SDS011;55906;52.278;6.808;2023-11-21T00:06:15;26.15;;;11.27;;
68870;SDS011;55906;52.278;6.808;2023-11-21T00:08:41;22.80;;;10.57;;
68870;SDS011;55906;52.278;6.808;2023-11-21T00:11:08;24.33;;;10.07;;
68870;SDS011;55906;52.278;6.808;2023-11-21T00:13:35;19.45;;;9.98;;
68870;SDS011;55906;52.278;6.808;2023-11-21T00:16:03;21.58;;;10.55;;
68870;SDS011;55906;52.278;6.808;2023-11-21T00:18:30;25.03;;;11.10;;
68870;SDS011;55906;52.278;6.808;2023-11-21T00:20:58;22.55;;;10.10;;
68870;SDS011;55906;52.278;6.808;2023-11-21T00:23:25;18.88;;;10.07;;
68870;SDS011;55906;52.278;6.808;2023-11-21T00:25:52;18.52;;;9.77;;
68870;SDS011;55906;52.278;6.808;2023-11-21T00:28:18;34.72;;;15.55;;
68870;SDS011;55906;52.278;6.808;2023-11-21T00:30:45;36.27;;;14.83;;
68870;SDS011;55906;52.278;6.808;2023-11-21T00:33:12;27.95;;;13.02;;
68870;SDS011;55906;52.278;6.808;2023-11-21T00:35:38;24.20;;;12.93;;
68870;SDS011;55906;52.278;6.808;2023-11-21T00:38:06;34.28;;;14.57;;
68870;SDS011;55906;52.278;6.808;2023-11-21T00:40:34;25.02;;;13.13;;
68870;SDS011;55906;52.278;6.808;2023-11-21T00:43:01;25.70;;;12.43;;
68870;SDS011;55906;52.278;6.808;2023-11-21T00:45:27;35.47;;;16.25;;
68870;SDS011;55906;52.278;6.808;2023-11-21T00:47:54;24.83;;;13.55;;
68870;SDS011;55906;52.278;6.808;2023-11-21T00:50:21;27.58;;;13.60;;
68870;SDS011;55906;52.278;6.808;2023-11-21T00:52:48;21.57;;;11.73;;
68870;SDS011;55906;52.278;6.808;2023-11-21T00:55:18;24.33;;;13.70;;
68870;SDS011;55906;52.278;6.808;2023-11-21T00:57:44;30.35;;;13.80;;
68870;SDS011;55906;52.278;6.808;2023-11-21T01:00:11;36.05;;;15.98;;
68870;SDS011;55906;52.278;6.808;2023-11-21T01:02:42;35.10;;;17.45;;
68870;SDS011;55906;52.278;6.808;2023-11-21T01:05:09;26.73;;;13.95;;
68870;SDS011;55906;52.278;6.808;2023-11-21T01:07:36;37.60;;;17.25;;
68870;SDS011;55906;52.278;6.808;2023-11-21T01:10:03;36.50;;;18.25;;
68870;SDS011;55906;52.278;6.808;2023-11-21T01:12:33;34.72;;;16.75;;
68870;SDS011;55906;52.278;6.808;2023-11-21T01:15:00;36.83;;;18.40;;
68870;SDS011;55906;52.278;6.808;2023-11-21T01:17:27;37.00;;;17.90;;
68870;SDS011;55906;52.278;6.808;2023-11-21T01:19:54;31.48;;;16.30;;
68870;SDS011;55906;52.278;6.808;2023-11-21T01:22:21;37.85;;;16.50;;
68870;SDS011;55906;52.278;6.808;2023-11-21T01:24:51;36.37;;;16.53;;
68870;SDS011;55906;52.278;6.808;2023-11-21T01:27:17;28.58;;;14.98;;
68870;SDS011;55906;52.278;6.808;2023-11-21T01:29:46;39.33;;;18.58;;
68870;SDS011;55906;52.278;6.808;2023-11-21T01:32:12;32.95;;;17.10;;
68870;SDS011;55906;52.278;6.808;2023-11-21T01:34:39;37.57;;;18.47;;
68870;SDS011;55906;52.278;6.808;2023-11-21T01:37:06;36.05;;;17.88;;
68870;SDS011;55906;52.278;6.808;2023-11-21T01:39:33;38.65;;;18.77;;
68870;SDS011;55906;52.278;6.808;2023-11-21T01:42:00;38.55;;;17.92;;
68870;SDS011;55906;52.278;6.808;2023-11-21T01:44:26;35.13;;;18.07;;
68870;SDS011;55906;52.278;6.808;2023-11-21T01:46:55;36.78;;;18.70;;
68870;SDS011;55906;52.278;6.808;2023-11-21T01:49:22;29.33;;;17.23;;
68870;SDS011;55906;52.278;6.808;2023-11-21T01:51:49;31.08;;;15.77;;
68870;SDS011;55906;52.278;6.808;2023-11-21T01:54:17;33.00;;;17.90;;
68870;SDS011;55906;52.278;6.808;2023-11-21T01:56:45;38.08;;;18.75;;
68870;SDS011;55906;52.278;6.808;2023-11-21T01:59:13;33.70;;;16.85;;
68870;SDS011;55906;52.278;6.808;2023-11-21T02:01:44;30.10;;;16.00;;
68870;SDS011;55906;52.278;6.808;2023-11-21T02:04:12;33.93;;;17.30;;
68870;SDS011;55906;52.278;6.808;2023-11-21T02:06:40;37.92;;;17.17;;
68870;SDS011;55906;52.278;6.808;2023-11-21T02:09:06;41.28;;;20.63;;
68870;SDS011;55906;52.278;6.808;2023-11-21T02:11:34;39.10;;;19.70;;
68870;SDS011;55906;52.278;6.808;2023-11-21T02:14:00;43.70;;;19.70;;
68870;SDS011;55906;52.278;6.808;2023-11-21T02:16:28;32.03;;;16.30;;
68870;SDS011;55906;52.278;6.808;2023-11-21T02:18:56;35.92;;;17.25;;
68870;SDS011;55906;52.278;6.808;2023-11-21T02:21:25;36.80;;;18.48;;
68870;SDS011;55906;52.278;6.808;2023-11-21T02:23:55;32.20;;;16.47;;
68870;SDS011;55906;52.278;6.808;2023-11-21T02:26:22;33.58;;;16.65;;
68870;SDS011;55906;52.278;6.808;2023-11-21T02:28:50;37.17;;;19.17;;
68870;SDS011;55906;52.278;6.808;2023-11-21T02:31:18;29.17;;;14.55;;
68870;SDS011;55906;52.278;6.808;2023-11-21T02:33:45;36.10;;;17.42;;
68870;SDS011;55906;52.278;6.808;2023-11-21T02:36:12;28.95;;;14.75;;
68870;SDS011;55906;52.278;6.808;2023-11-21T02:38:39;29.98;;;15.20;;
68870;SDS011;55906;52.278;6.808;2023-11-21T02:41:07;31.05;;;15.05;;
68870;SDS011;55906;52.278;6.808;2023-11-21T02:43:33;30.37;;;15.90;;
68870;SDS011;55906;52.278;6.808;2023-11-21T02:46:00;29.60;;;15.25;;
68870;SDS011;55906;52.278;6.808;2023-11-21T02:48:27;26.17;;;14.70;;
68870;SDS011;55906;52.278;6.808;2023-11-21T02:50:54;29.40;;;16.17;;
68870;SDS011;55906;52.278;6.808;2023-11-21T02:53:20;33.28;;;16.33;;
68870;SDS011;55906;52.278;6.808;2023-11-21T02:55:47;34.57;;;16.30;;
68870;SDS011;55906;52.278;6.808;2023-11-21T02:58:15;33.78;;;16.50;;
68870;SDS011;55906;52.278;6.808;2023-11-21T03:00:42;34.83;;;17.70;;
68870;SDS011;55906;52.278;6.808;2023-11-21T03:03:08;25.65;;;13.50;;
68870;SDS011;55906;52.278;6.808;2023-11-21T03:05:35;26.93;;;15.27;;
68870;SDS011;55906;52.278;6.808;2023-11-21T03:08:02;30.63;;;15.85;;
68870;SDS011;55906;52.278;6.808;2023-11-21T03:10:29;26.90;;;15.02;;
68870;SDS011;55906;52.278;6.808;2023-11-21T03:12:56;35.00;;;16.02;;
68870;SDS011;55906;52.278;6.808;2023-11-21T03:15:24;32.75;;;16.85;;
68870;SDS011;55906;52.278;6.808;2023-11-21T03:17:51;30.08;;;15.45;;
68870;SDS011;55906;52.278;6.808;2023-11-21T03:20:18;26.83;;;13.25;;
68870;SDS011;55906;52.278;6.808;2023-11-21T03:22:44;26.85;;;14.00;;
68870;SDS011;55906;52.278;6.808;2023-11-21T03:25:11;31.08;;;16.10;;
68870;SDS011;55906;52.278;6.808;2023-11-21T03:27:38;37.40;;;18.30;;
68870;SDS011;55906;52.278;6.808;2023-11-21T03:30:07;29.20;;;14.80;;
68870;SDS011;55906;52.278;6.808;2023-11-21T03:32:37;27.83;;;14.57;;
68870;SDS011;55906;52.278;6.808;2023-11-21T03:35:04;36.25;;;17.38;;
68870;SDS011;55906;52.278;6.808;2023-11-21T03:37:31;34.00;;;17.73;;
68870;SDS011;55906;52.278;6.808;2023-11-21T03:39:58;35.53;;;17.42;;
68870;SDS011;55906;52.278;6.808;2023-11-21T03:42:24;34.80;;;16.58;;
68870;SDS011;55906;52.278;6.808;2023-11-21T03:44:51;37.00;;;18.08;;
68870;SDS011;55906;52.278;6.808;2023-11-21T03:47:18;33.45;;;16.70;;
68870;SDS011;55906;52.278;6.808;2023-11-21T03:49:46;35.17;;;17.50;;
68870;SDS011;55906;52.278;6.808;2023-11-21T03:52:13;36.88;;;17.67;;
68870;SDS011;55906;52.278;6.808;2023-11-21T03:54:40;39.00;;;18.65;;
68870;SDS011;55906;52.278;6.808;2023-11-21T03:57:08;38.75;;;19.50;;
68870;SDS011;55906;52.278;6.808;2023-11-21T03:59:34;27.90;;;14.90;;
68870;SDS011;55906;52.278;6.808;2023-11-21T04:02:01;29.20;;;15.15;;
68870;SDS011;55906;52.278;6.808;2023-11-21T04:04:28;35.30;;;17.95;;
68870;SDS011;55906;52.278;6.808;2023-11-21T04:06:56;34.25;;;15.82;;
68870;SDS011;55906;52.278;6.808;2023-11-21T04:09:23;31.73;;;16.08;;
68870;SDS011;55906;52.278;6.808;2023-11-21T04:11:50;45.27;;;18.53;;
68870;SDS011;55906;52.278;6.808;2023-11-21T04:14:17;26.58;;;14.55;;
68870;SDS011;55906;52.278;6.808;2023-11-21T04:16:43;29.75;;;14.10;;
68870;SDS011;55906;52.278;6.808;2023-11-21T04:19:10;35.40;;;18.23;;
68870;SDS011;55906;52.278;6.808;2023-11-21T04:21:39;29.33;;;15.43;;
68870;SDS011;55906;52.278;6.808;2023-11-21T04:24:08;31.83;;;15.75;;
68870;SDS011;55906;52.278;6.808;2023-11-21T04:26:35;29.13;;;14.57;;
68870;SDS011;55906;52.278;6.808;2023-11-21T04:29:02;26.30;;;13.30;;
68870;SDS011;55906;52.278;6.808;2023-11-21T04:31:29;39.43;;;18.17;;
68870;SDS011;55906;52.278;6.808;2023-11-21T04:33:57;27.67;;;14.75;;
68870;SDS011;55906;52.278;6.808;2023-11-21T04:36:23;36.13;;;18.23;;
68870;SDS011;55906;52.278;6.808;2023-11-21T04:38:50;39.65;;;18.35;;
68870;SDS011;55906;52.278;6.808;2023-11-21T04:41:18;27.15;;;15.32;;
68870;SDS011;55906;52.278;6.808;2023-11-21T04:43:45;32.15;;;15.90;;
68870;SDS011;55906;52.278;6.808;2023-11-21T04:46:11;32.17;;;15.68;;
68870;SDS011;55906;52.278;6.808;2023-11-21T04:48:38;42.33;;;19.00;;
68870;SDS011;55906;52.278;6.808;2023-11-21T04:51:05;36.97;;;18.17;;
68870;SDS011;55906;52.278;6.808;2023-11-21T04:53:32;36.67;;;18.08;;
68870;SDS011;55906;52.278;6.808;2023-11-21T04:55:59;37.00;;;18.80;;
68870;SDS011;55906;52.278;6.808;2023-11-21T04:58:27;32.25;;;15.73;;
68870;SDS011;55906;52.278;6.808;2023-11-21T05:00:54;31.23;;;15.95;;
68870;SDS011;55906;52.278;6.808;2023-11-21T05:03:21;32.23;;;17.10;;
68870;SDS011;55906;52.278;6.808;2023-11-21T05:05:48;25.27;;;13.32;;
68870;SDS011;55906;52.278;6.808;2023-11-21T05:08:15;27.38;;;13.15;;
68870;SDS011;55906;52.278;6.808;2023-11-21T05:10:42;31.05;;;15.02;;
68870;SDS011;55906;52.278;6.808;2023-11-21T05:13:09;25.23;;;12.60;;
68870;SDS011;55906;52.278;6.808;2023-11-21T05:15:37;31.50;;;15.43;;
68870;SDS011;55906;52.278;6.808;2023-11-21T05:18:04;38.45;;;16.63;;
68870;SDS011;55906;52.278;6.808;2023-11-21T05:20:31;29.58;;;15.65;;
68870;SDS011;55906;52.278;6.808;2023-11-21T05:22:58;34.20;;;17.10;;
68870;SDS011;55906;52.278;6.808;2023-11-21T05:25:25;36.15;;;15.82;;
68870;SDS011;55906;52.278;6.808;2023-11-21T05:27:51;26.63;;;12.27;;
68870;SDS011;55906;52.278;6.808;2023-11-21T05:30:19;24.05;;;12.95;;
68870;SDS011;55906;52.278;6.808;2023-11-21T05:32:49;25.97;;;12.97;;
68870;SDS011;55906;52.278;6.808;2023-11-21T05:35:15;27.38;;;13.25;;
68870;SDS011;55906;52.278;6.808;2023-11-21T05:37:42;23.85;;;14.68;;
68870;SDS011;55906;52.278;6.808;2023-11-21T05:40:09;30.77;;;14.55;;
68870;SDS011;55906;52.278;6.808;2023-11-21T05:42:36;25.37;;;13.07;;
68870;SDS011;55906;52.278;6.808;2023-11-21T05:45:04;26.25;;;13.68;;
68870;SDS011;55906;52.278;6.808;2023-11-21T05:47:36;26.17;;;13.75;;
68870;SDS011;55906;52.278;6.808;2023-11-21T05:50:05;27.83;;;13.38;;
68870;SDS011;55906;52.278;6.808;2023-11-21T05:52:35;25.15;;;12.55;;
68870;SDS011;55906;52.278;6.808;2023-11-21T05:55:02;20.95;;;11.90;;
68870;SDS011;55906;52.278;6.808;2023-11-21T05:57:30;28.85;;;14.85;;
68870;SDS011;55906;52.278;6.808;2023-11-21T05:59:56;28.42;;;14.75;;
68870;SDS011;55906;52.278;6.808;2023-11-21T06:02:23;40.50;;;19.35;;
68870;SDS011;55906;52.278;6.808;2023-11-21T06:04:51;34.15;;;16.75;;
68870;SDS011;55906;52.278;6.808;2023-11-21T06:07:19;26.83;;;15.32;;
68870;SDS011;55906;52.278;6.808;2023-11-21T06:09:45;28.98;;;14.90;;
68870;SDS011;55906;52.278;6.808;2023-11-21T06:12:13;33.92;;;18.23;;
68870;SDS011;55906;52.278;6.808;2023-11-21T06:14:41;39.63;;;20.33;;
68870;SDS011;55906;52.278;6.808;2023-11-21T06:17:07;32.47;;;16.10;;
68870;SDS011;55906;52.278;6.808;2023-11-21T06:19:35;35.42;;;16.55;;
68870;SDS011;55906;52.278;6.808;2023-11-21T06:22:01;34.00;;;17.02;;
68870;SDS011;55906;52.278;6.808;2023-11-21T06:24:29;25.90;;;14.97;;
68870;SDS011;55906;52.278;6.808;2023-11-21T06:26:56;27.73;;;14.60;;
68870;SDS011;55906;52.278;6.808;2023-11-21T06:29:23;25.40;;;13.50;;
68870;SDS011;55906;52.278;6.808;2023-11-21T06:31:51;32.28;;;16.38;;
68870;SDS011;55906;52.278;6.808;2023-11-21T06:34:20;25.02;;;14.98;;
68870;SDS011;55906;52.278;6.808;2023-11-21T06:36:46;32.20;;;16.60;;
68870;SDS011;55906;52.278;6.808;2023-11-21T06:39:13;29.95;;;16.65;;
68870;SDS011;55906;52.278;6.808;2023-11-21T06:41:43;29.42;;;15.60;;
68870;SDS011;55906;52.278;6.808;2023-11-21T06:44:09;28.50;;;15.90;;
68870;SDS011;55906;52.278;6.808;2023-11-21T06:46:36;27.50;;;15.70;;
68870;SDS011;55906;52.278;6.808;2023-11-21T06:49:07;25.88;;;13.68;;
68870;SDS011;55906;52.278;6.808;2023-11-21T06:51:34;25.60;;;14.00;;
68870;SDS011;55906;52.278;6.808;2023-11-21T06:54:00;26.88;;;13.25;;
68870;SDS011;55906;52.278;6.808;2023-11-21T06:56:27;23.13;;;12.37;;
68870;SDS011;55906;52.278;6.808;2023-11-21T06:58:55;19.10;;;10.38;;
68870;SDS011;55906;52.278;6.808;2023-11-21T07:01:22;21.75;;;11.25;;
68870;SDS011;55906;52.278;6.808;2023-11-21T07:03:49;18.42;;;10.30;;
68870;SDS011;55906;52.278;6.808;2023-11-21T07:06:16;17.48;;;11.07;;
68870;SDS011;55906;52.278;6.808;2023-11-21T07:08:43;16.47;;;9.27;;
68870;SDS011;55906;52.278;6.808;2023-11-21T07:11:09;20.65;;;12.60;;
68870;SDS011;55906;52.278;6.808;2023-11-21T07:13:37;17.77;;;11.00;;
68870;SDS011;55906;52.278;6.808;2023-11-21T07:16:05;20.55;;;10.82;;
68870;SDS011;55906;52.278;6.808;2023-11-21T07:18:32;24.03;;;12.10;;
68870;SDS011;55906;52.278;6.808;2023-11-21T07:20:59;21.27;;;11.13;;
68870;SDS011;55906;52.278;6.808;2023-11-21T07:23:25;16.92;;;9.60;;
68870;SDS011;55906;52.278;6.808;2023-11-21T07:25:52;15.20;;;9.65;;
68870;SDS011;55906;52.278;6.808;2023-11-21T07:28:19;15.68;;;9.85;;
68870;SDS011;55906;52.278;6.808;2023-11-21T07:30:45;16.03;;;9.13;;
68870;SDS011;55906;52.278;6.808;2023-11-21T07:33:13;17.88;;;10.10;;
68870;SDS011;55906;52.278;6.808;2023-11-21T07:35:40;14.60;;;8.65;;
68870;SDS011;55906;52.278;6.808;2023-11-21T07:38:07;22.75;;;11.40;;
68870;SDS011;55906;52.278;6.808;2023-11-21T07:40:33;21.65;;;10.98;;
68870;SDS011;55906;52.278;6.808;2023-11-21T07:43:00;18.10;;;10.60;;
68870;SDS011;55906;52.278;6.808;2023-11-21T07:45:27;17.67;;;9.95;;
68870;SDS011;55906;52.278;6.808;2023-11-21T07:47:53;16.42;;;8.90;;
68870;SDS011;55906;52.278;6.808;2023-11-21T07:50:22;16.98;;;10.23;;
68870;SDS011;55906;52.278;6.808;2023-11-21T07:52:49;15.93;;;9.57;;
68870;SDS011;55906;52.278;6.808;2023-11-21T07:55:15;16.83;;;9.37;;
68870;SDS011;55906;52.278;6.808;2023-11-21T07:57:42;16.77;;;8.10;;
68870;SDS011;55906;52.278;6.808;2023-11-21T08:00:09;14.63;;;8.75;;
68870;SDS011;55906;52.278;6.808;2023-11-21T08:02:37;13.73;;;7.88;;
68870;SDS011;55906;52.278;6.808;2023-11-21T08:05:04;15.20;;;9.43;;
68870;SDS011;55906;52.278;6.808;2023-11-21T08:07:33;14.13;;;8.57;;
68870;SDS011;55906;52.278;6.808;2023-11-21T08:10:00;15.75;;;9.95;;
68870;SDS011;55906;52.278;6.808;2023-11-21T08:12:28;19.17;;;9.18;;
68870;SDS011;55906;52.278;6.808;2023-11-21T08:14:54;13.77;;;8.30;;
68870;SDS011;55906;52.278;6.808;2023-11-21T08:17:21;20.52;;;10.88;;
68870;SDS011;55906;52.278;6.808;2023-11-21T08:19:48;18.70;;;9.13;;
68870;SDS011;55906;52.278;6.808;2023-11-21T08:22:16;17.10;;;9.23;;
68870;SDS011;55906;52.278;6.808;2023-11-21T08:24:44;15.82;;;8.55;;
68870;SDS011;55906;52.278;6.808;2023-11-21T08:27:12;18.08;;;9.00;;
68870;SDS011;55906;52.278;6.808;2023-11-21T08:29:40;16.50;;;8.90;;
68870;SDS011;55906;52.278;6.808;2023-11-21T08:32:07;19.90;;;10.30;;
68870;SDS011;55906;52.278;6.808;2023-11-21T08:34:34;16.23;;;8.93;;
68870;SDS011;55906;52.278;6.808;2023-11-21T08:37:01;16.92;;;9.63;;
68870;SDS011;55906;52.278;6.808;2023-11-21T08:39:28;16.75;;;8.30;;
68870;SDS011;55906;52.278;6.808;2023-11-21T08:41:56;16.08;;;9.55;;
68870;SDS011;55906;52.278;6.808;2023-11-21T08:44:23;17.23;;;8.07;;
68870;SDS011;55906;52.278;6.808;2023-11-21T08:46:50;15.02;;;7.97;;
68870;SDS011;55906;52.278;6.808;2023-11-21T08:49:17;17.45;;;8.80;;
68870;SDS011;55906;52.278;6.808;2023-11-21T08:51:44;20.38;;;11.63;;
68870;SDS011;55906;52.278;6.808;2023-11-21T08:54:10;19.23;;;11.00;;
68870;SDS011;55906;52.278;6.808;2023-11-21T08:56:37;21.93;;;11.73;;
68870;SDS011;55906;52.278;6.808;2023-11-21T08:59:05;20.00;;;11.30;;
68870;SDS011;55906;52.278;6.808;2023-11-21T09:01:33;23.95;;;12.95;;
68870;SDS011;55906;52.278;6.808;2023-11-21T09:03:59;20.38;;;10.63;;
68870;SDS011;55906;52.278;6.808;2023-11-21T09:06:27;18.08;;;10.07;;
68870;SDS011;55906;52.278;6.808;2023-11-21T09:08:54;18.50;;;9.80;;
68870;SDS011;55906;52.278;6.808;2023-11-21T09:11:20;18.13;;;9.70;;
68870;SDS011;55906;52.278;6.808;2023-11-21T09:13:50;16.45;;;9.82;;
68870;SDS011;55906;52.278;6.808;2023-11-21T09:16:19;15.05;;;9.00;;
68870;SDS011;55906;52.278;6.808;2023-11-21T09:18:45;12.30;;;7.57;;
68870;SDS011;55906;52.278;6.808;2023-11-21T09:21:12;16.17;;;9.43;;
68870;SDS011;55906;52.278;6.808;2023-11-21T09:23:39;17.17;;;9.30;;
68870;SDS011;55906;52.278;6.808;2023-11-21T09:26:06;13.43;;;9.10;;
68870;SDS011;55906;52.278;6.808;2023-11-21T09:28:33;13.75;;;8.13;;
68870;SDS011;55906;52.278;6.808;2023-11-21T09:31:03;12.13;;;7.82;;
68870;SDS011;55906;52.278;6.808;2023-11-21T09:33:35;15.30;;;10.07;;
68870;SDS011;55906;52.278;6.808;2023-11-21T09:36:03;16.45;;;10.32;;
68870;SDS011;55906;52.278;6.808;2023-11-21T09:38:30;14.85;;;9.02;;
68870;SDS011;55906;52.278;6.808;2023-11-21T09:40:57;15.93;;;9.75;;
68870;SDS011;55906;52.278;6.808;2023-11-21T09:43:24;14.35;;;8.63;;
68870;SDS011;55906;52.278;6.808;2023-11-21T09:45:56;14.10;;;8.67;;
68870;SDS011;55906;52.278;6.808;2023-11-21T09:48:28;13.00;;;9.38;;
68870;SDS011;55906;52.278;6.808;2023-11-21T09:50:58;14.50;;;8.63;;
68870;SDS011;55906;52.278;6.808;2023-11-21T09:53:26;11.70;;;7.30;;
68870;SDS011;55906;52.278;6.808;2023-11-21T09:55:55;16.55;;;9.20;;
68870;SDS011;55906;52.278;6.808;2023-11-21T09:58:22;14.63;;;9.10;;
68870;SDS011;55906;52.278;6.808;2023-11-21T10:00:55;12.65;;;8.43;;
68870;SDS011;55906;52.278;6.808;2023-11-21T10:03:25;15.98;;;9.77;;
68870;SDS011;55906;52.278;6.808;2023-11-21T10:05:53;14.35;;;7.70;;
68870;SDS011;55906;52.278;6.808;2023-11-21T10:08:22;12.77;;;7.63;;
68870;SDS011;55906;52.278;6.808;2023-11-21T10:10:52;13.47;;;8.17;;
68870;SDS011;55906;52.278;6.808;2023-11-21T10:13:20;17.27;;;10.20;;
68870;SDS011;55906;52.278;6.808;2023-11-21T10:15:48;15.30;;;8.98;;
68870;SDS011;55906;52.278;6.808;2023-11-21T10:18:16;16.15;;;9.43;;
68870;SDS011;55906;52.278;6.808;2023-11-21T10:20:44;16.90;;;9.85;;
68870;SDS011;55906;52.278;6.808;2023-11-21T10:23:16;16.00;;;8.97;;
68870;SDS011;55906;52.278;6.808;2023-11-21T10:25:46;12.80;;;7.63;;
68870;SDS011;55906;52.278;6.808;2023-11-21T10:28:12;14.05;;;7.40;;
68870;SDS011;55906;52.278;6.808;2023-11-21T10:30:39;16.88;;;9.73;;
68870;SDS011;55906;52.278;6.808;2023-11-21T10:33:07;17.48;;;9.13;;
68870;SDS011;55906;52.278;6.808;2023-11-21T10:35:43;17.87;;;10.37;;
68870;SDS011;55906;52.278;6.808;2023-11-21T10:38:16;18.80;;;10.45;;
68870;SDS011;55906;52.278;6.808;2023-11-21T10:40:43;14.68;;;8.88;;
68870;SDS011;55906;52.278;6.808;2023-11-21T10:43:13;18.15;;;10.10;;
68870;SDS011;55906;52.278;6.808;2023-11-21T10:45:41;14.77;;;9.50;;
68870;SDS011;55906;52.278;6.808;2023-11-21T10:48:09;18.03;;;10.23;;
68870;SDS011;55906;52.278;6.808;2023-11-21T10:50:36;16.52;;;9.45;;
68870;SDS011;55906;52.278;6.808;2023-11-21T10:53:04;13.80;;;8.48;;
68870;SDS011;55906;52.278;6.808;2023-11-21T10:55:31;14.63;;;9.15;;
68870;SDS011;55906;52.278;6.808;2023-11-21T10:57:59;17.02;;;9.18;;
68870;SDS011;55906;52.278;6.808;2023-11-21T11:00:30;14.87;;;8.43;;
68870;SDS011;55906;52.278;6.808;2023-11-21T11:02:57;13.88;;;8.20;;
68870;SDS011;55906;52.278;6.808;2023-11-21T11:05:26;14.02;;;8.35;;
68870;SDS011;55906;52.278;6.808;2023-11-21T11:07:58;16.73;;;9.50;;
68870;SDS011;55906;52.278;6.808;2023-11-21T11:10:26;14.60;;;8.05;;
68870;SDS011;55906;52.278;6.808;2023-11-21T11:12:54;15.23;;;8.67;;
68870;SDS011;55906;52.278;6.808;2023-11-21T11:15:22;15.95;;;9.25;;
68870;SDS011;55906;52.278;6.808;2023-11-21T11:17:51;21.33;;;11.13;;
68870;SDS011;55906;52.278;6.808;2023-11-21T11:20:22;15.55;;;8.55;;
68870;SDS011;55906;52.278;6.808;2023-11-21T11:22:52;15.50;;;8.35;;
68870;SDS011;55906;52.278;6.808;2023-11-21T11:25:35;17.40;;;10.43;;
68870;SDS011;55906;52.278;6.808;2023-11-21T11:28:17;18.85;;;9.82;;
68870;SDS011;55906;52.278;6.808;2023-11-21T11:30:50;20.88;;;10.98;;
68870;SDS011;55906;52.278;6.808;2023-11-21T11:33:28;20.63;;;10.35;;
68870;SDS011;55906;52.278;6.808;2023-11-21T11:36:04;21.50;;;10.70;;
68870;SDS011;55906;52.278;6.808;2023-11-21T11:38:33;20.23;;;10.87;;
68870;SDS011;55906;52.278;6.808;2023-11-21T11:41:02;24.23;;;12.10;;
68870;SDS011;55906;52.278;6.808;2023-11-21T11:43:30;21.38;;;11.57;;
68870;SDS011;55906;52.278;6.808;2023-11-21T11:46:05;20.70;;;10.45;;
68870;SDS011;55906;52.278;6.808;2023-11-21T11:48:36;25.17;;;11.98;;
68870;SDS011;55906;52.278;6.808;2023-11-21T11:51:05;22.03;;;10.93;;
68870;SDS011;55906;52.278;6.808;2023-11-21T11:53:38;22.58;;;11.52;;
68870;SDS011;55906;52.278;6.808;2023-11-21T11:56:19;21.60;;;11.02;;
68870;SDS011;55906;52.278;6.808;2023-11-21T11:58:49;20.83;;;10.60;;
68870;SDS011;55906;52.278;6.808;2023-11-21T12:01:17;18.85;;;9.23;;
68870;SDS011;55906;52.278;6.808;2023-11-21T12:03:46;20.13;;;9.73;;
68870;SDS011;55906;52.278;6.808;2023-11-21T12:07:00;16.95;;;9.10;;
68870;SDS011;55906;52.278;6.808;2023-11-21T12:09:28;16.38;;;9.27;;
68870;SDS011;55906;52.278;6.808;2023-11-21T12:11:57;16.33;;;8.48;;
68870;SDS011;55906;52.278;6.808;2023-11-21T12:14:25;17.60;;;9.02;;
68870;SDS011;55906;52.278;6.808;2023-11-21T12:16:52;19.90;;;10.50;;
68870;SDS011;55906;52.278;6.808;2023-11-21T12:19:20;23.40;;;11.40;;
68870;SDS011;55906;52.278;6.808;2023-11-21T12:21:48;19.60;;;10.13;;
68870;SDS011;55906;52.278;6.808;2023-11-21T12:24:15;20.30;;;10.32;;
68870;SDS011;55906;52.278;6.808;2023-11-21T12:26:42;19.85;;;10.70;;
68870;SDS011;55906;52.278;6.808;2023-11-21T12:29:09;19.73;;;10.83;;
68870;SDS011;55906;52.278;6.808;2023-11-21T12:31:36;18.60;;;10.45;;
68870;SDS011;55906;52.278;6.808;2023-11-21T12:34:02;20.15;;;10.55;;
68870;SDS011;55906;52.278;6.808;2023-11-21T12:36:33;19.48;;;9.93;;
68870;SDS011;55906;52.278;6.808;2023-11-21T12:39:01;18.08;;;9.95;;
68870;SDS011;55906;52.278;6.808;2023-11-21T12:41:28;16.47;;;9.67;;
68870;SDS011;55906;52.278;6.808;2023-11-21T12:43:56;15.05;;;9.23;;
68870;SDS011;55906;52.278;6.808;2023-11-21T12:46:23;16.63;;;10.60;;
68870;SDS011;55906;52.278;6.808;2023-11-21T12:48:51;14.32;;;8.30;;
68870;SDS011;55906;52.278;6.808;2023-11-21T12:51:18;18.17;;;9.95;;
68870;SDS011;55906;52.278;6.808;2023-11-21T12:53:46;14.87;;;8.70;;
68870;SDS011;55906;52.278;6.808;2023-11-21T12:56:13;15.57;;;9.13;;
68870;SDS011;55906;52.278;6.808;2023-11-21T12:58:45;15.75;;;8.85;;
68870;SDS011;55906;52.278;6.808;2023-11-21T13:01:13;17.38;;;9.15;;
68870;SDS011;55906;52.278;6.808;2023-11-21T13:03:44;20.30;;;11.40;;
68870;SDS011;55906;52.278;6.808;2023-11-21T13:06:14;16.60;;;10.13;;
68870;SDS011;55906;52.278;6.808;2023-11-21T13:08:41;14.10;;;9.02;;
68870;SDS011;55906;52.278;6.808;2023-11-21T13:11:11;19.08;;;11.25;;
68870;SDS011;55906;52.278;6.808;2023-11-21T13:13:40;19.25;;;11.02;;
68870;SDS011;55906;52.278;6.808;2023-11-21T13:16:08;15.38;;;9.63;;
68870;SDS011;55906;52.278;6.808;2023-11-21T13:18:36;19.40;;;11.63;;
68870;SDS011;55906;52.278;6.808;2023-11-21T13:21:05;17.40;;;10.75;;
68870;SDS011;55906;52.278;6.808;2023-11-21T13:23:37;14.57;;;9.70;;
68870;SDS011;55906;52.278;6.808;2023-11-21T13:26:05;14.63;;;9.85;;
68870;SDS011;55906;52.278;6.808;2023-11-21T13:28:35;15.55;;;10.32;;
68870;SDS011;55906;52.278;6.808;2023-11-21T13:31:03;15.47;;;10.73;;
68870;SDS011;55906;52.278;6.808;2023-11-21T13:33:34;14.70;;;9.27;;
68870;SDS011;55906;52.278;6.808;2023-11-21T13:36:03;15.98;;;10.85;;
68870;SDS011;55906;52.278;6.808;2023-11-21T13:38:33;14.88;;;10.48;;
68870;SDS011;55906;52.278;6.808;2023-11-21T13:41:00;15.10;;;10.25;;
68870;SDS011;55906;52.278;6.808;2023-11-21T13:43:32;15.53;;;10.63;;
68870;SDS011;55906;52.278;6.808;2023-11-21T13:46:00;13.77;;;8.75;;
68870;SDS011;55906;52.278;6.808;2023-11-21T13:48:33;14.40;;;9.63;;
68870;SDS011;55906;52.278;6.808;2023-11-21T13:51:07;12.20;;;8.63;;
68870;SDS011;55906;52.278;6.808;2023-11-21T13:53:41;16.33;;;10.07;;
68870;SDS011;55906;52.278;6.808;2023-11-21T13:56:08;12.83;;;8.00;;
68870;SDS011;55906;52.278;6.808;2023-11-21T13:58:35;13.85;;;8.98;;
68870;SDS011;55906;52.278;6.808;2023-11-21T14:01:11;10.88;;;7.70;;
68870;SDS011;55906;52.278;6.808;2023-11-21T14:03:54;12.95;;;8.73;;
68870;SDS011;55906;52.278;6.808;2023-11-21T14:06:27;10.90;;;7.63;;
68870;SDS011;55906;52.278;6.808;2023-11-21T14:08:59;12.10;;;8.60;;
68870;SDS011;55906;52.278;6.808;2023-11-21T14:11:30;11.30;;;8.13;;
68870;SDS011;55906;52.278;6.808;2023-11-21T14:13:57;11.60;;;7.10;;
68870;SDS011;55906;52.278;6.808;2023-11-21T14:16:25;12.43;;;7.97;;
68870;SDS011;55906;52.278;6.808;2023-11-21T14:18:52;12.52;;;7.57;;
68870;SDS011;55906;52.278;6.808;2023-11-21T14:21:26;11.80;;;7.63;;
68870;SDS011;55906;52.278;6.808;2023-11-21T14:23:53;11.68;;;6.82;;
68870;SDS011;55906;52.278;6.808;2023-11-21T14:26:20;11.77;;;7.20;;
68870;SDS011;55906;52.278;6.808;2023-11-21T14:28:49;10.60;;;7.22;;
68870;SDS011;55906;52.278;6.808;2023-11-21T14:31:16;10.32;;;6.45;;